Погода Сайдана неделю

Сайда, Ливан

15 - 21 июля
  • 15июля
    Сегодня
    +27°
    +32°
    Ясно и безоблачно
    ВремяПогодаТемператураВлажностьДавлениеВетер, м/сВероятность осадков
    00:00Небольшая облачность+28°C84 %749 мм4.0 м/с5 %
    03:00Практически безоблачно+28°C84 %749 мм4.1 м/с4 %
    06:00Ясно и безоблачно+28°C82 %749 мм5.0 м/с1 %
    09:00Ясно и безоблачно+31°C70 %749 мм4.8 м/с0 %
    12:00Ясно и безоблачно+31°C73 %750 мм6.8 м/с0 %
    15:00Ясно и безоблачно+31°C75 %750 мм5.6 м/с0 %
    18:00Ясно и безоблачно+31°C74 %749 мм3.2 м/с0 %
    21:00Ясно и безоблачно+29°C80 %750 мм2.9 м/с0 %
  • 16июля
    Вторник
    +27°
    +32°
    Ясно и безоблачно
    ВремяПогодаТемператураВлажностьДавлениеВетер, м/сВероятность осадков
    00:00Ясно и безоблачно+28°C85 %750 мм3.0 м/с0 %
    03:00Ясно и безоблачно+28°C73 %749 мм2.9 м/с0 %
    06:00Ясно и безоблачно+28°C72 %750 мм3.2 м/с0 %
    09:00Ясно и безоблачно+30°C76 %750 мм4.1 м/с1 %
    12:00Ясно и безоблачно+31°C76 %751 мм5.2 м/с1 %
    15:00Ясно и безоблачно+31°C76 %750 мм3.8 м/с1 %
    18:00Ясно и безоблачно+30°C78 %750 мм1.9 м/с0 %
    21:00Ясно и безоблачно+28°C86 %750 мм1.5 м/с0 %
  • 17июля
    Среда
    +26°
    +32°
    Ясно и безоблачно
    ВремяПогодаТемператураВлажностьДавлениеВетер, м/сВероятность осадков
    00:00Ясно и безоблачно+28°C83 %750 мм2.1 м/с0 %
    03:00Ясно и безоблачно+27°C78 %750 мм1.4 м/с0 %
    06:00Ясно и безоблачно+27°C79 %750 мм2.2 м/с0 %
    09:00Ясно и безоблачно+30°C74 %751 мм3.7 м/с0 %
    12:00Ясно и безоблачно+30°C77 %752 мм3.6 м/с0 %
    15:00Ясно и безоблачно+31°C71 %751 мм2.7 м/с0 %
    18:00Ясно и безоблачно+31°C70 %751 мм1.4 м/с0 %
    21:00Ясно и безоблачно+29°C80 %751 мм0.2 м/с0 %
  • 18июля
    Четверг
    +27°
    +32°
    Ясно и безоблачно
    ВремяПогодаТемператураВлажностьДавлениеВетер, м/сВероятность осадков
    00:00Ясно и безоблачно+28°C84 %751 мм0.7 м/с0 %
    03:00Ясно и безоблачно+27°C82 %750 мм0.6 м/с0 %
    06:00Ясно и безоблачно+27°C73 %750 мм1.4 м/с0 %
    09:00Ясно и безоблачно+31°C68 %751 мм2.5 м/с0 %
    12:00Ясно и безоблачно+31°C74 %751 мм3.4 м/с0 %
    15:00Ясно и безоблачно+31°C77 %750 мм2.9 м/с0 %
    18:00Ясно и безоблачно+31°C80 %750 мм2.1 м/с0 %
    21:00Ясно и безоблачно+29°C86 %750 мм1.3 м/с0 %
Мы используем cookies
Соглашаюсь